Monroe, Oregon
Current Conditions -  °F | °C
As of 10:35 AM on Saturday 25 Oct 2014 (Local Time) from KCVO Reporting Station
Overcast Overcast  
Wind Chill: 55°   Ceiling: 6000
Heat Index: 55°   Visibility: 10mi
Dew Point: 52°   Wind: 5mph
Humidity: 88%   Direction: 270°W
Pressure: 29.41"   Gusts: NA
Location:  44.31°N, 123.3°W
Report Text: KCVO 251735Z AUTO 27004KT 10SM BKN060 OVC070 13/11 A2941 RMK AO1
Loading
Personal Weather Stations






























Interactive Weather Map
Tropical Storm Tracking
New forecast layout! Learn more

10-Day Weather Forecast

Advertisements
Track Severe Weather on mobile